Passadumkeag, Maine
Current Conditions -  °F | °C
As of 3:53 PM on Tuesday 27 Jan 2015 (Local Time) from KBGR Reporting Station
Moderate Snow Moderate Snow  
Wind Chill: -11°   Ceiling: 1300
Heat Index: 11°   Visibility: 0.25mi
Dew Point:   Wind: 31mph
Humidity: 84%   Direction: 20°NNE
Pressure: 29.55"   Gusts: 39mph
Location:  45.19°N, 68.62°W
Report Text: KBGR 272053Z 02027G34KT 1/4SM R15/4500VP6000FT SN BLSN FZFG VV013 M12/M14 A2955 RMK AO2 PK WND 04039/2014 SFC VIS 1/2 SLP013 P0001 60006 T11171139 56022
Loading
Personal Weather Stations






























Interactive Weather Map New forecast layout! Learn more

10-Day Weather Forecast

Advertisements
Track Severe Weather on mobile